Time;durP1;ratioP1;P1;durP2;ratioP2;P2;SDS_P1;SDS_P2;PMS_P1;PMS_P2;Temp;Humidity;BMP_temperature;BMP_pressure;BME280_temperature;BME280_humidity;BME280_pressure;Samples;Min_cycle;Max_cycle;Signal;HPM_P1;HPM_P2
2024/03/17 00:01:36;;;;;;;5.10;3.90;;;;;;;12.25;58.58;99160.94;4938873;29;20031;-73
2024/03/17 00:04:02;;;;;;;6.25;4.43;;;;;;;12.25;58.70;99167.00;4938842;29;20380;-73
2024/03/17 00:06:27;;;;;;;13.23;7.05;;;;;;;12.22;58.86;99164.63;4906211;29;20054;-73
2024/03/17 00:08:54;;;;;;;11.57;7.93;;;;;;;12.19;58.67;99159.66;4922531;29;20039;-73
2024/03/17 00:11:20;;;;;;;15.00;9.07;;;;;;;12.18;58.46;99159.78;4923035;29;20495;-73
2024/03/17 00:13:45;;;;;;;14.18;9.00;;;;;;;12.22;58.64;99163.81;4922939;29;20058;-73
2024/03/17 00:16:12;;;;;;;14.45;9.43;;;;;;;12.20;58.57;99157.88;4906264;29;20033;-73
2024/03/17 00:18:38;;;;;;;14.45;9.15;;;;;;;12.18;58.84;99162.38;4922345;29;20046;-73
2024/03/17 00:21:04;;;;;;;14.25;9.25;;;;;;;12.17;58.90;99163.31;4921784;29;20047;-73
2024/03/17 00:23:29;;;;;;;13.50;8.65;;;;;;;12.12;58.76;99154.03;4922157;29;20479;-73
2024/03/17 00:25:55;;;;;;;13.38;8.80;;;;;;;12.13;58.76;99155.72;4906353;29;20130;-73
2024/03/17 00:28:20;;;;;;;14.00;8.43;;;;;;;12.12;58.96;99150.59;4906547;29;20031;-73
2024/03/17 00:30:46;;;;;;;10.30;7.68;;;;;;;12.12;58.75;99151.41;4938242;29;20471;-73
2024/03/17 00:33:11;;;;;;;11.98;7.82;;;;;;;12.11;58.59;99149.75;4906647;29;20125;-74
2024/03/17 00:35:37;;;;;;;10.55;7.43;;;;;;;12.10;58.73;99153.31;4938125;29;20050;-74
2024/03/17 00:38:09;;;;;;;9.07;6.53;;;;;;;12.09;58.55;99150.81;4921184;29;20106;-73
2024/03/17 00:40:36;;;;;;;11.30;7.20;;;;;;;12.07;58.48;99152.72;4923921;29;20034;-73
2024/03/17 00:43:02;;;;;;;10.07;7.28;;;;;;;12.04;58.56;99145.13;4955470;29;20053;-73
2024/03/17 00:45:28;;;;;;;10.35;6.72;;;;;;;12.03;58.65;99146.06;4921934;29;20566;-73
2024/03/17 00:47:53;;;;;;;10.05;6.45;;;;;;;12.07;58.69;99152.72;4906398;29;20035;-74
2024/03/17 00:50:19;;;;;;;9.80;6.65;;;;;;;12.06;58.56;99149.25;4921733;29;20034;-73
2024/03/17 00:52:44;;;;;;;9.73;6.63;;;;;;;12.05;58.56;99147.63;4922186;29;20118;-73
2024/03/17 00:55:10;;;;;;;10.57;6.32;;;;;;;12.02;58.68;99141.75;4921764;29;20031;-73
2024/03/17 00:57:36;;;;;;;8.55;6.25;;;;;;;12.01;58.72;99140.09;4921983;29;20046;-74
2024/03/17 01:00:03;;;;;;;9.27;5.43;;;;;;;12.00;58.27;99147.13;4937965;29;20035;-73
2024/03/17 01:02:29;;;;;;;9.98;5.95;;;;;;;12.03;58.57;99146.88;4921099;29;20525;-73
2024/03/17 01:04:54;;;;;;;8.63;5.93;;;;;;;12.02;58.70;99150.47;4921279;29;20078;-73
2024/03/17 01:07:20;;;;;;;8.85;6.00;;;;;;;11.97;58.31;99147.38;4954530;29;20368;-73
2024/03/17 01:09:47;;;;;;;8.98;5.78;;;;;;;11.96;58.51;99137.84;4921621;29;20047;-74
2024/03/17 01:12:13;;;;;;;7.50;5.45;;;;;;;11.96;58.57;99137.03;4921482;29;20035;-73
2024/03/17 01:14:38;;;;;;;8.13;5.57;;;;;;;11.99;58.15;99149.88;4905245;29;20043;-73
2024/03/17 01:17:04;;;;;;;8.38;5.47;;;;;;;11.98;58.22;99148.19;4954370;29;20031;-73
2024/03/17 01:19:30;;;;;;;6.45;4.85;;;;;;;11.95;58.25;99146.63;4937337;29;20031;-73
2024/03/17 01:21:55;;;;;;;7.80;5.00;;;;;;;11.96;58.14;99147.47;4904376;29;20530;-73
2024/03/17 01:24:21;;;;;;;7.60;4.80;;;;;;;11.93;58.32;99144.13;4921244;29;20027;-73
2024/03/17 01:26:46;;;;;;;8.07;4.80;;;;;;;11.87;58.38;99139.31;4936998;29;20062;-73
2024/03/17 01:29:13;;;;;;;7.32;4.95;;;;;;;11.86;58.20;99148.13;4905669;29;20110;-73
2024/03/17 01:31:38;;;;;;;6.97;4.95;;;;;;;11.84;58.34;99141.34;4921927;29;20066;-73
2024/03/17 01:34:04;;;;;;;7.72;5.15;;;;;;;11.87;58.17;99148.97;4921353;29;20035;-73
2024/03/17 01:36:29;;;;;;;7.38;5.15;;;;;;;11.86;58.14;99139.44;4937159;29;20487;-73
2024/03/17 01:38:55;;;;;;;6.47;4.65;;;;;;;11.83;58.28;99137.03;4905041;29;20070;-73
2024/03/17 01:41:21;;;;;;;6.93;4.82;;;;;;;11.82;58.45;99132.78;4905509;29;20066;-74
2024/03/17 01:43:46;;;;;;;6.15;4.53;;;;;;;11.80;58.45;99134.66;4921218;29;20023;-75
2024/03/17 01:46:13;;;;;;;4.97;4.18;;;;;;;11.78;58.39;99140.03;4921520;29;20403;-73
2024/03/17 01:48:39;;;;;;;7.60;4.70;;;;;;;11.74;58.05;99139.41;4920841;29;20055;-73
2024/03/17 01:51:04;;;;;;;6.03;4.18;;;;;;;11.69;58.10;99132.88;4905662;29;20027;-73
2024/03/17 01:53:30;;;;;;;6.85;4.75;;;;;;;11.66;58.22;99126.09;4921223;29;20038;-74
2024/03/17 01:55:57;;;;;;;9.30;4.38;;;;;;;11.59;58.40;99123.09;4921520;29;20043;-75
2024/03/17 01:58:24;;;;;;;10.82;4.88;;;;;;;11.65;58.18;99134.03;4921061;29;20031;-73
2024/03/17 02:00:51;;;;;;;5.68;4.25;;;;;;;11.63;58.38;99131.53;4905510;29;20042;-74
2024/03/17 02:03:16;;;;;;;5.32;4.15;;;;;;;11.57;58.17;99121.53;4921213;29;20406;-74
2024/03/17 02:05:42;;;;;;;6.47;4.22;;;;;;;11.56;58.21;99125.94;4921224;29;20036;-73
2024/03/17 02:08:07;;;;;;;8.05;4.68;;;;;;;11.58;58.54;99129.25;4920750;29;20027;-73
2024/03/17 02:10:34;;;;;;;8.02;4.43;;;;;;;11.54;58.49;99126.97;4936962;29;20538;-73
2024/03/17 02:13:00;;;;;;;5.30;4.25;;;;;;;11.50;58.32;99129.00;4921402;29;20064;-75
2024/03/17 02:15:26;;;;;;;7.68;4.47;;;;;;;11.56;58.45;99138.19;4904755;29;20138;-75
2024/03/17 02:17:51;;;;;;;6.30;4.68;;;;;;;11.55;58.13;99134.72;4920972;29;20335;-74
2024/03/17 02:20:17;;;;;;;6.88;5.10;;;;;;;11.55;58.49;99134.72;4920788;29;20360;-74
2024/03/17 02:22:43;;;;;;;7.75;5.15;;;;;;;11.51;58.58;99124.59;4905020;29;20067;-74
2024/03/17 02:25:08;;;;;;;8.43;5.95;;;;;;;11.51;58.54;99127.22;4904607;29;20043;-74
2024/03/17 02:27:35;;;;;;;9.77;6.18;;;;;;;11.54;58.30;99126.97;4920737;29;20483;-75
2024/03/17 02:30:01;;;;;;;10.15;7.03;;;;;;;11.54;58.12;99140.06;4921132;29;20086;-74
2024/03/17 02:32:27;;;;;;;12.23;8.07;;;;;;;11.50;58.17;99122.94;4910783;28;20038;-75
2024/03/17 02:34:53;;;;;;;11.43;7.50;;;;;;;11.52;58.23;99129.72;4939791;28;20136;-75
2024/03/17 02:37:18;;;;;;;15.23;8.38;;;;;;;11.49;58.27;99123.88;4939965;28;20549;-75
2024/03/17 02:39:44;;;;;;;12.98;8.32;;;;;;;11.53;58.54;99127.94;4939688;28;20126;-73
2024/03/17 02:42:10;;;;;;;14.07;8.27;;;;;;;11.48;58.11;99124.81;4924009;28;20038;-75
2024/03/17 02:44:37;;;;;;;12.55;8.15;;;;;;;11.50;58.26;99130.78;4924033;28;20093;-75
2024/03/17 02:47:08;;;;;;;12.20;8.27;;;;;;;11.50;58.31;99125.56;4973165;28;20031;-75
2024/03/17 02:49:37;;;;;;;10.27;7.40;;;;;;;11.49;58.28;99139.56;4955650;28;20035;-75
2024/03/17 02:52:04;;;;;;;10.77;7.45;;;;;;;11.48;58.45;99136.13;4944556;28;20031;-73
2024/03/17 02:54:30;;;;;;;12.48;7.93;;;;;;;11.40;58.01;99126.25;4927487;28;20035;-73
2024/03/17 02:56:55;;;;;;;10.27;7.05;;;;;;;11.45;58.55;99115.44;4959075;28;20030;-73
2024/03/17 02:59:21;;;;;;;9.95;7.00;;;;;;;11.48;58.19;99119.59;4927104;28;20494;-73
2024/03/17 03:01:46;;;;;;;11.70;7.28;;;;;;;11.47;58.22;99124.00;4976516;28;20425;-74
2024/03/17 03:04:12;;;;;;;11.60;7.45;;;;;;;11.45;58.12;99117.19;4959188;28;20042;-75
2024/03/17 03:06:38;;;;;;;10.75;6.80;;;;;;;11.49;58.26;99132.56;4943150;28;20038;-75
2024/03/17 03:09:05;;;;;;;11.90;6.95;;;;;;;11.49;58.37;99134.34;4959043;28;20482;-75
2024/03/17 03:11:30;;;;;;;9.25;6.43;;;;;;;11.50;58.16;99134.22;4927604;28;20053;-75
2024/03/17 03:13:56;;;;;;;9.48;6.43;;;;;;;11.49;57.94;99134.34;4959342;28;20478;-75
2024/03/17 03:16:21;;;;;;;9.75;6.53;;;;;;;11.49;58.12;99136.97;4943067;28;20039;-75
2024/03/17 03:18:47;;;;;;;9.88;6.22;;;;;;;11.49;58.07;99137.78;4942974;28;20478;-75
2024/03/17 03:21:12;;;;;;;8.80;6.20;;;;;;;11.49;58.07;99142.19;4957293;28;20162;-75
2024/03/17 03:23:38;;;;;;;10.43;6.38;;;;;;;11.50;58.34;99143.88;4927141;28;20074;-75
2024/03/17 03:26:04;;;;;;;8.80;5.78;;;;;;;11.48;58.38;99138.75;4927369;28;20035;-75
2024/03/17 03:28:30;;;;;;;10.88;6.18;;;;;;;11.46;58.29;99145.84;4958732;28;20481;-75
2024/03/17 03:30:56;;;;;;;9.30;5.63;;;;;;;11.45;58.05;99144.19;4942736;28;20026;-75
2024/03/17 03:33:22;;;;;;;9.15;5.45;;;;;;;11.40;58.35;99136.69;4958674;28;20401;-73
2024/03/17 03:35:47;;;;;;;9.80;5.57;;;;;;;11.45;58.23;99143.34;4926016;28;20440;-75
2024/03/17 03:38:16;;;;;;;10.95;5.85;;;;;;;11.36;58.09;99135.25;4942732;28;20042;-75
2024/03/17 03:40:42;;;;;;;8.50;5.65;;;;;;;11.41;58.07;99138.34;4942941;28;20041;-75
2024/03/17 03:43:11;;;;;;;8.00;5.43;;;;;;;11.37;58.08;99146.53;4941983;28;20039;-75
2024/03/17 03:45:36;;;;;;;;;;;;;;;11.40;58.37;99148.91;4943003;28;20114;-72
2024/03/17 03:48:04;;;;;;;7.97;4.97;;;;;;;11.32;58.13;99146.03;4941609;28;19953;-73
2024/03/17 03:50:30;;;;;;;7.78;5.45;;;;;;;11.35;58.24;99151.88;4942898;28;20037;-75
2024/03/17 03:52:55;;;;;;;8.38;5.60;;;;;;;11.35;58.42;99154.50;4942195;28;20038;-74
2024/03/17 03:55:21;;;;;;;7.60;5.28;;;;;;;11.35;58.25;99149.28;4942164;28;20031;-74
2024/03/17 03:57:47;;;;;;;8.23;4.97;;;;;;;11.30;58.40;99148.75;4942159;28;20498;-74
2024/03/17 04:00:21;;;;;;;9.57;5.45;;;;;;;11.29;58.22;99151.47;4926219;28;20038;-74
2024/03/17 04:02:47;;;;;;;7.43;4.95;;;;;;;11.32;58.53;99159.94;4958398;28;20027;-73
2024/03/17 04:05:12;;;;;;;6.60;4.82;;;;;;;11.33;58.40;99161.59;4926375;28;20088;-73
2024/03/17 04:07:39;;;;;;;6.57;4.90;;;;;;;11.31;58.50;99163.50;4974972;28;20478;-73
2024/03/17 04:10:05;;;;;;;8.25;5.00;;;;;;;11.32;58.46;99169.53;4941986;28;20039;-73
2024/03/17 04:12:31;;;;;;;9.10;5.30;;;;;;;11.31;58.11;99163.50;4957134;28;20469;-73
2024/03/17 04:14:57;;;;;;;7.07;4.75;;;;;;;11.30;58.44;99163.59;4941611;28;20023;-74
2024/03/17 04:17:23;;;;;;;7.03;4.97;;;;;;;11.31;58.14;99166.09;4941407;28;20051;-74
2024/03/17 04:19:49;;;;;;;7.45;5.15;;;;;;;11.31;58.19;99166.09;4957694;28;20027;-73
2024/03/17 04:22:18;;;;;;;7.43;4.80;;;;;;;11.28;58.35;99165.50;4941291;28;20059;-74
2024/03/17 04:24:44;;;;;;;7.85;4.93;;;;;;;11.28;58.29;99165.50;4925577;28;20041;-74
2024/03/17 04:27:09;;;;;;;6.55;4.97;;;;;;;11.30;58.19;99167.03;4925120;28;20117;-73
2024/03/17 04:29:35;;;;;;;8.30;4.72;;;;;;;11.33;58.11;99166.00;4941419;28;20031;-74
2024/03/17 04:32:00;;;;;;;7.43;5.00;;;;;;;11.32;57.85;99167.78;4925981;28;20105;-73
2024/03/17 04:34:29;;;;;;;7.82;5.50;;;;;;;11.37;58.11;99170.91;4925233;28;20026;-73
2024/03/17 04:36:54;;;;;;;6.68;4.70;;;;;;;11.36;57.96;99169.22;4926140;28;20038;-74
2024/03/17 04:39:20;;;;;;;6.95;5.03;;;;;;;11.36;57.82;99177.06;4941550;28;20039;-74
2024/03/17 04:41:47;;;;;;;7.97;5.32;;;;;;;11.37;58.13;99176.13;4941449;28;20034;-74
2024/03/17 04:44:13;;;;;;;8.23;5.20;;;;;;;11.34;58.01;99171.13;4952688;29;20059;-74
2024/03/17 04:46:39;;;;;;;7.00;4.93;;;;;;;11.38;58.02;99182.19;4912900;28;20686;-75
2024/03/17 04:49:04;;;;;;;6.75;4.65;;;;;;;11.41;57.74;99185.41;4921699;29;20135;-75
2024/03/17 04:51:30;;;;;;;7.68;5.28;;;;;;;11.40;57.87;99180.28;4921909;29;20034;-75
2024/03/17 04:53:55;;;;;;;7.68;5.30;;;;;;;11.45;57.88;99185.16;4922195;29;20039;-74
2024/03/17 04:56:21;;;;;;;6.53;4.53;;;;;;;11.48;57.55;99187.56;4905734;29;20039;-73
2024/03/17 04:58:46;;;;;;;7.72;5.25;;;;;;;11.52;57.47;99186.41;4920736;29;20481;-75
2024/03/17 05:01:12;;;;;;;11.27;5.63;;;;;;;11.50;57.40;99186.53;4937593;29;20519;-75
2024/03/17 05:03:38;;;;;;;8.10;5.38;;;;;;;11.59;57.47;99195.44;4922168;29;20126;-73
2024/03/17 05:06:04;;;;;;;7.43;5.30;;;;;;;11.64;57.36;99192.50;4921780;29;20110;-74
2024/03/17 05:08:30;;;;;;;7.05;5.32;;;;;;;11.67;57.34;99187.06;4921554;29;20059;-74
2024/03/17 05:10:59;;;;;;;9.20;5.55;;;;;;;11.71;56.96;99189.31;4905996;29;20027;-74
2024/03/17 05:13:28;;;;;;;8.00;5.90;;;;;;;11.77;56.87;99194.09;4920627;29;20035;-74
2024/03/17 05:15:54;;;;;;;8.60;6.10;;;;;;;11.83;56.76;99194.59;4905683;29;20039;-76
2024/03/17 05:18:20;;;;;;;10.55;7.00;;;;;;;11.94;56.98;99190.28;4903547;29;20565;-75
2024/03/17 05:20:47;;;;;;;8.27;6.13;;;;;;;11.99;56.41;99189.94;4918724;29;20035;-75
2024/03/17 05:23:13;;;;;;;9.75;7.15;;;;;;;12.13;56.41;99199.38;4921170;29;20059;-74
2024/03/17 05:25:39;;;;;;;11.05;8.05;;;;;;;12.24;56.01;99190.69;4937406;29;20024;-75
2024/03/17 05:28:05;;;;;;;10.73;7.45;;;;;;;12.38;55.66;99200.13;4953966;29;20037;-73
2024/03/17 05:30:30;;;;;;;13.05;8.20;;;;;;;12.52;55.45;99193.81;4905433;29;20058;-74
2024/03/17 05:32:56;;;;;;;10.35;7.63;;;;;;;12.63;55.26;99205.16;4905663;29;20035;-75
2024/03/17 05:35:21;;;;;;;11.60;8.10;;;;;;;12.75;55.23;99210.38;4904593;29;20040;-74
2024/03/17 05:37:49;;;;;;;12.80;8.10;;;;;;;12.84;55.29;99207.06;4921094;29;20075;-75
2024/03/17 05:40:14;;;;;;;11.15;7.28;;;;;;;12.95;55.04;99203.56;4905881;29;20042;-74
2024/03/17 05:42:43;;;;;;;12.75;7.82;;;;;;;13.07;54.95;99204.41;4905320;29;20398;-75
2024/03/17 05:45:10;;;;;;;;;;;;;;;13.26;54.50;99209.00;4921876;29;20478;-73
2024/03/17 05:47:41;;;;;;;11.75;7.60;;;;;;;13.50;53.84;99206.22;4937340;29;20002;-75
2024/03/17 05:50:06;;;;;;;11.43;7.38;;;;;;;13.53;54.00;99211.22;4937786;29;20035;-73
2024/03/17 05:52:32;;;;;;;11.63;7.80;;;;;;;13.59;53.70;99213.34;4921088;29;20465;-75
2024/03/17 05:54:57;;;;;;;11.68;7.60;;;;;;;13.69;53.54;99216.06;4905166;29;20035;-75
2024/03/17 05:57:24;;;;;;;10.55;7.40;;;;;;;13.74;53.37;99208.63;4920756;29;20439;-73
2024/03/17 05:59:49;;;;;;;10.35;7.18;;;;;;;13.86;53.37;99212.88;4904693;29;20109;-74
2024/03/17 06:02:15;;;;;;;10.90;6.95;;;;;;;13.92;53.01;99211.56;4954072;29;20028;-74
2024/03/17 06:04:41;;;;;;;10.65;7.22;;;;;;;13.98;53.31;99212.81;4931347;28;20131;-76
2024/03/17 06:07:07;;;;;;;5.03;4.00;;;;;;;14.25;64.88;99220.22;4939262;28;20023;-77
2024/03/17 06:09:32;;;;;;;7.25;3.85;;;;;;;14.57;66.58;99216.66;4923737;28;20038;-79
2024/03/17 06:11:58;;;;;;;11.73;3.65;;;;;;;14.91;65.03;99226.91;4939395;28;20083;-80
2024/03/17 06:14:28;;;;;;;7.30;4.15;;;;;;;14.97;62.70;99224.59;4955100;28;20053;-83
2024/03/17 06:16:54;;;;;;;16.23;3.63;;;;;;;15.08;64.04;99228.09;4939266;28;20074;-82
2024/03/17 06:19:20;;;;;;;12.10;3.58;;;;;;;15.37;65.06;99229.00;4940239;28;20066;-80
2024/03/17 06:21:45;;;;;;;15.20;4.47;;;;;;;15.57;62.43;99223.75;4955131;28;20498;-81
2024/03/17 06:24:11;;;;;;;12.43;4.05;;;;;;;16.14;62.13;99236.25;4923760;28;20042;-77
2024/03/17 06:26:36;;;;;;;15.73;3.70;;;;;;;16.48;63.35;99228.69;4976712;28;20125;-79
2024/03/17 06:29:02;;;;;;;13.63;4.10;;;;;;;16.64;61.92;99234.19;4961080;28;20486;-80
2024/03/17 06:31:27;;;;;;;18.67;5.07;;;;;;;16.66;61.50;99234.03;4927137;28;20034;-78
2024/03/17 06:33:53;;;;;;;13.57;4.88;;;;;;;16.70;60.57;99230.16;4943005;28;20042;-78
2024/03/17 06:36:18;;;;;;;11.98;5.47;;;;;;;16.67;59.56;99246.25;4942925;28;20414;-78
2024/03/17 06:38:44;;;;;;;12.60;6.40;;;;;;;16.60;58.53;99245.16;4961230;28;20418;-82
2024/03/17 06:41:10;;;;;;;13.05;6.90;;;;;;;16.55;58.18;99242.94;4927189;28;20034;-85
2024/03/17 06:43:35;;;;;;;15.60;6.72;;;;;;;16.48;57.68;99246.28;4959076;28;20023;-82
2024/03/17 06:46:01;;;;;;;11.18;6.65;;;;;;;16.42;57.48;99240.63;4942584;28;20089;-84
2024/03/17 06:48:27;;;;;;;13.45;7.38;;;;;;;16.44;56.79;99246.59;4926595;28;20034;-88
2024/03/17 06:50:54;;;;;;;14.88;8.10;;;;;;;16.44;56.66;99243.94;4958146;28;20565;-84
2024/03/17 06:53:22;;;;;;;12.15;7.25;;;;;;;16.42;56.30;99245.09;4926994;28;20461;-82
2024/03/17 06:55:58;;;;;;;11.82;8.05;;;;;;;16.41;55.90;99246.91;4943076;28;20087;-84
2024/03/17 06:58:26;;;;;;;16.67;9.05;;;;;;;16.51;55.28;99233.69;4926345;28;20069;-82
2024/03/17 07:00:56;;;;;;;14.95;8.77;;;;;;;16.52;55.19;99245.06;4942798;28;20545;-81
2024/03/17 07:03:26;;;;;;;13.25;8.90;;;;;;;16.61;54.97;99244.19;4958962;28;20035;-81
2024/03/17 07:05:55;;;;;;;13.25;8.57;;;;;;;16.56;54.61;99238.53;4929208;28;20027;-80
2024/03/17 07:08:21;;;;;;;12.38;8.55;;;;;;;16.57;54.25;99253.34;4942748;28;20035;-81
2024/03/17 07:11:05;;;;;;;11.77;8.13;;;;;;;16.58;54.21;99250.56;4942048;28;20058;-80
2024/03/17 07:13:37;;;;;;;14.20;8.57;;;;;;;16.53;53.83;99241.44;4942477;28;20418;-82
2024/03/17 07:16:05;;;;;;;12.00;8.60;;;;;;;16.60;53.63;99246.00;4926134;28;20031;-82
2024/03/17 07:18:31;;;;;;;14.43;8.15;;;;;;;16.67;55.14;99250.69;4942922;28;20372;-81
2024/03/17 07:20:58;;;;;;;11.95;8.13;;;;;;;16.76;53.79;99249.81;4942393;28;20035;-81
2024/03/17 07:23:23;;;;;;;12.98;8.25;;;;;;;16.90;53.12;99248.56;4942975;28;20055;-81
2024/03/17 07:25:55;;;;;;;14.13;6.53;;;;;;;17.06;57.32;99240.03;4926069;28;20568;-82
2024/03/17 07:28:21;;;;;;;13.52;8.57;;;;;;;17.14;55.08;99253.31;4926186;28;20062;-82
2024/03/17 07:30:48;;;;;;;12.73;8.35;;;;;;;17.27;53.82;99245.88;4957666;28;20406;-83
2024/03/17 07:33:13;;;;;;;16.02;9.40;;;;;;;17.44;53.12;99246.06;4942257;28;20058;-81
2024/03/17 07:35:56;;;;;;;13.05;9.05;;;;;;;17.65;52.27;99248.44;4958621;28;20493;-83
2024/03/17 07:38:26;;;;;;;13.82;9.55;;;;;;;17.67;51.87;99236.72;4943423;28;20030;-85
2024/03/17 07:41:05;;;;;;;15.57;9.65;;;;;;;17.85;51.11;99246.47;4942387;28;20027;-85
2024/03/17 07:43:39;;;;;;;11.75;9.18;;;;;;;18.01;50.58;99241.38;4956929;28;20046;-82
2024/03/17 07:46:06;;;;;;;13.02;9.40;;;;;;;18.11;50.10;99243.09;4926936;28;20031;-81
2024/03/17 07:48:33;;;;;;;9.40;6.25;;;;;;;18.33;56.96;99257.59;4926573;28;20042;-78
2024/03/17 07:51:06;;;;;;;8.98;4.63;;;;;;;19.10;58.44;99245.38;4941723;28;20045;-77
2024/03/17 07:53:35;;;;;;;11.77;4.15;;;;;;;19.80;55.79;99240.75;4942454;28;20106;-80
2024/03/17 07:56:04;;;;;;;11.68;3.92;;;;;;;20.36;53.71;99240.91;4941446;28;20034;-76
2024/03/17 07:58:32;;;;;;;12.50;4.28;;;;;;;21.60;49.78;99233.34;4941910;28;20129;-78
2024/03/17 08:01:02;;;;;;;8.75;4.90;;;;;;;22.03;48.39;99236.34;4942058;28;20035;-84
2024/03/17 08:03:31;;;;;;;10.07;5.32;;;;;;;21.90;46.48;99228.16;4942515;28;20039;-88
2024/03/17 08:05:58;;;;;;;10.18;5.90;;;;;;;21.74;45.97;99232.56;4947488;28;20098;-84
2024/03/17 08:08:24;;;;;;;11.37;7.03;;;;;;;22.14;44.49;99229.75;4945679;28;20047;-90
2024/03/17 08:10:49;;;;;;;9.20;6.35;;;;;;;22.21;44.81;99230.72;4945681;28;20570;-86
2024/03/17 08:13:16;;;;;;;8.05;6.05;;;;;;;22.26;44.84;99236.31;4941644;28;20062;-86
2024/03/17 08:15:46;;;;;;;10.15;5.93;;;;;;;22.88;43.19;99226.38;4926089;28;20031;-86
2024/03/17 08:18:12;;;;;;;15.45;7.05;;;;;;;23.34;42.68;99227.97;4943259;28;20109;-83
2024/03/17 08:20:46;;;;;;;10.10;5.57;;;;;;;23.65;42.42;99227.69;4929692;28;20038;-80
2024/03/17 08:23:16;;;;;;;10.70;4.50;;;;;;;24.04;42.73;99221.13;4963623;28;20145;-93
2024/03/17 08:25:41;;;;;;;8.63;4.25;;;;;;;24.27;41.84;99214.72;4962662;28;20058;-90
2024/03/17 08:28:07;;;;;;;16.55;5.07;;;;;;;24.31;41.66;99216.81;4923545;28;21356;-84
2024/03/17 08:30:33;;;;;;;13.05;4.50;;;;;;;24.34;41.35;99224.41;4948328;28;20050;-82
2024/03/17 08:32:59;;;;;;;9.32;4.90;;;;;;;24.70;40.81;99207.44;4931617;28;20454;-82
2024/03/17 08:35:25;;;;;;;6.60;4.55;;;;;;;25.40;39.31;99209.97;4918986;28;20039;-82
2024/03/17 08:37:56;;;;;;;6.13;3.78;;;;;;;25.79;39.06;99203.06;4923849;28;20399;-80
2024/03/17 08:40:22;;;;;;;10.45;5.55;;;;;;;26.23;35.91;99198.13;4926364;28;20046;-85
2024/03/17 08:42:49;;;;;;;14.07;8.00;;;;;;;25.74;33.14;99186.78;4943656;28;20027;-88
2024/03/17 08:45:14;;;;;;;13.80;8.02;;;;;;;25.48;32.27;99200.16;4977572;28;20019;-86
2024/03/17 08:47:40;;;;;;;14.25;8.82;;;;;;;25.13;32.17;99201.03;4924650;29;20058;-80
2024/03/17 08:50:08;;;;;;;12.70;8.13;;;;;;;24.89;30.42;99197.03;4955407;29;20476;-78
2024/03/17 08:52:34;;;;;;;13.93;9.27;;;;;;;24.57;30.14;99188.66;4923266;29;20115;-83
2024/03/17 08:54:59;;;;;;;12.40;8.55;;;;;;;24.10;30.44;99193.69;4905859;29;20046;-85
2024/03/17 08:57:25;;;;;;;13.15;8.50;;;;;;;23.97;29.90;99196.22;4906564;29;20035;-83
2024/03/17 08:59:53;;;;;;;13.52;8.93;;;;;;;23.67;30.72;99191.84;4922271;29;20456;-84
2024/03/17 09:02:19;;;;;;;10.98;8.43;;;;;;;23.10;31.68;99190.00;4922646;29;20045;-80
2024/03/17 09:04:45;;;;;;;13.80;8.57;;;;;;;22.98;32.76;99186.16;4922090;29;20032;-78
2024/03/17 09:07:10;;;;;;;10.98;8.25;;;;;;;22.65;33.17;99178.59;4905474;29;20039;-79
2024/03/17 09:09:36;;;;;;;14.18;8.43;;;;;;;22.50;34.62;99167.94;4905921;29;20046;-79
2024/03/17 09:12:03;;;;;;;9.80;7.43;;;;;;;22.74;34.69;99167.66;4921880;29;20039;-78
2024/03/17 09:14:29;;;;;;;15.48;9.82;;;;;;;22.99;34.33;99175.31;4940494;29;20027;-83
2024/03/17 09:16:58;;;;;;;9.77;7.45;;;;;;;23.06;35.36;99176.22;4923351;29;20078;-88
2024/03/17 09:19:23;;;;;;;14.88;8.20;;;;;;;23.08;33.47;99170.75;4924432;29;20502;-82
2024/03/17 09:21:49;;;;;;;12.98;8.48;;;;;;;23.23;33.81;99171.53;4936726;29;20070;-80
2024/03/17 09:24:14;;;;;;;13.77;7.88;;;;;;;23.50;34.39;99161.16;4955433;29;20186;-82
2024/03/17 09:26:40;;;;;;;14.38;10.20;;;;;;;23.39;32.58;99159.81;4922201;29;20451;-82
2024/03/17 09:29:05;;;;;;;12.00;7.90;;;;;;;23.30;33.17;99151.13;4923394;29;20046;-81
2024/03/17 09:31:35;;;;;;;13.35;8.40;;;;;;;23.67;32.29;99157.22;4939885;29;20398;-81
2024/03/17 09:34:02;;;;;;;10.45;7.53;;;;;;;23.76;31.41;99149.06;4924248;29;20070;-82
2024/03/17 09:36:28;;;;;;;11.88;7.82;;;;;;;23.69;31.75;99140.19;4938629;29;20033;-84
2024/03/17 09:38:55;;;;;;;10.50;7.20;;;;;;;23.28;32.08;99147.81;4937947;29;20047;-82
2024/03/17 09:41:22;;;;;;;8.60;6.70;;;;;;;22.86;33.30;99148.56;4906656;29;20058;-89
2024/03/17 09:43:48;;;;;;;10.60;6.82;;;;;;;22.36;32.96;99137.66;4941856;29;20051;-84
2024/03/17 09:46:16;;;;;;;8.32;6.57;;;;;;;22.05;33.18;99133.31;4923544;29;20023;-85
2024/03/17 09:48:42;;;;;;;13.52;6.55;;;;;;;21.52;34.08;99127.97;4924178;29;20028;-84
2024/03/17 09:51:07;;;;;;;14.25;6.05;;;;;;;21.49;40.13;99131.81;4921702;29;20491;-84
2024/03/17 09:53:34;;;;;;;11.13;6.88;;;;;;;21.58;40.79;99129.91;4905544;29;20039;-86
2024/03/17 09:55:59;;;;;;;9.40;6.20;;;;;;;21.65;41.29;99132.69;4905555;29;20027;-82
2024/03/17 09:58:25;;;;;;;13.68;6.15;;;;;;;21.57;41.06;99135.41;4936912;28;20105;-83
2024/03/17 10:00:50;;;;;;;8.45;6.07;;;;;;;21.50;42.18;99128.16;4921266;29;20039;-84
2024/03/17 10:03:42;;;;;;;9.75;5.43;;;;;;;21.39;42.00;99138.34;4921302;29;20043;-86
2024/03/17 10:06:11;;;;;;;9.43;6.05;;;;;;;21.17;42.60;99132.03;4952274;28;20043;-88
2024/03/17 10:08:42;;;;;;;10.63;6.22;;;;;;;20.98;43.13;99131.47;4934723;28;20026;-87
2024/03/17 10:11:08;;;;;;;11.45;6.03;;;;;;;20.76;44.04;99125.94;4927319;28;20034;-90
2024/03/17 10:13:34;;;;;;;15.02;6.03;;;;;;;20.67;44.14;99137.59;4941427;28;20043;-84
2024/03/17 10:15:59;;;;;;;8.93;6.15;;;;;;;20.47;43.84;99131.00;4926084;28;20035;-89
2024/03/17 10:18:24;;;;;;;11.65;6.13;;;;;;;20.25;44.11;99128.91;4938845;28;20109;-89
2024/03/17 10:20:56;;;;;;;8.55;5.90;;;;;;;20.08;44.98;99124.63;4973749;28;20517;-92
2024/03/17 10:23:23;;;;;;;10.02;5.75;;;;;;;19.97;45.00;99114.41;4944179;28;20545;-92
2024/03/17 10:25:49;;;;;;;9.05;5.70;;;;;;;19.82;45.61;99119.56;4942098;28;20034;-91
2024/03/17 10:28:20;;;;;;;7.05;5.80;;;;;;;19.75;46.34;99122.03;4941141;28;20447;-89
2024/03/17 10:31:01;;;;;;;8.65;6.00;;;;;;;19.73;46.56;99123.19;4918983;29;20062;-89
2024/03/17 10:33:28;;;;;;;9.52;6.38;;;;;;;19.74;46.77;99123.00;4919180;28;20047;-90
2024/03/17 10:36:00;;;;;;;7.57;6.00;;;;;;;19.65;47.02;99108.13;4965405;28;20483;-90
2024/03/17 10:38:27;;;;;;;10.38;5.80;;;;;;;19.69;46.99;99128.00;4921650;28;20027;-89
2024/03/17 10:40:52;;;;;;;11.40;5.85;;;;;;;19.63;47.25;99112.75;4932491;28;20043;-89
2024/03/17 10:43:24;;;;;;;7.20;5.82;;;;;;;19.58;46.95;99121.19;4928415;28;20043;-89
2024/03/17 10:45:49;;;;;;;7.70;5.82;;;;;;;19.45;46.78;99119.06;4931306;29;20047;-90
2024/03/17 10:48:16;;;;;;;6.60;5.20;;;;;;;19.42;46.71;99113.22;4921042;28;20047;-88
2024/03/17 10:50:43;;;;;;;7.57;5.85;;;;;;;19.30;47.02;99118.84;4948810;28;20088;-90
2024/03/17 10:53:11;;;;;;;11.75;5.50;;;;;;;19.31;47.39;99119.72;4929757;28;20569;-87
2024/03/17 10:55:40;;;;;;;;;;;;;;;19.31;47.71;99122.34;4927709;28;20716;-86
2024/03/17 10:58:08;;;;;;;6.05;5.07;;;;;;;19.23;47.94;99117.03;4943976;28;19911;-89
2024/03/17 11:00:33;;;;;;;;;;;;;;;19.27;48.34;99113.06;4930934;28;20197;-87
2024/03/17 11:02:59;;;;;;;8.00;5.63;;;;;;;19.28;48.64;99114.75;4954317;28;20412;-87
2024/03/17 11:05:34;;;;;;;7.28;5.40;;;;;;;19.26;48.33;99116.69;4922835;28;20078;-89
2024/03/17 11:08:03;;;;;;;8.57;5.40;;;;;;;19.28;47.68;99109.44;4939271;28;20034;-89
2024/03/17 11:10:29;;;;;;;7.75;5.47;;;;;;;19.36;47.48;99112.09;4938985;28;20039;-88
2024/03/17 11:12:59;;;;;;;7.10;5.10;;;;;;;19.37;47.20;99104.97;4942124;28;20050;-88
2024/03/17 11:15:33;;;;;;;6.88;5.43;;;;;;;19.43;47.47;99107.78;4907067;28;20043;-87
2024/03/17 11:18:08;;;;;;;6.70;4.90;;;;;;;19.48;47.36;99096.69;4938370;29;20126;-88
2024/03/17 11:20:35;;;;;;;8.20;5.18;;;;;;;19.47;47.75;99090.59;4954931;29;20519;-88
2024/03/17 11:23:00;;;;;;;5.55;4.80;;;;;;;19.55;47.78;99089.75;4921374;29;20453;-89
2024/03/17 11:25:26;;;;;;;7.65;5.35;;;;;;;19.65;48.00;99089.59;4922515;29;20031;-90
2024/03/17 11:27:53;;;;;;;6.15;5.03;;;;;;;19.66;46.44;99083.31;4956234;28;20114;-88